Terminal Aerodrome Forecast
Issued by NWS

Current Version | Previous Version | Graphics & Text | Print | Product List | Glossary On
Versions: 1 2 3 4 5 6 7 8 9 10 11 12 13 14 15 16 17 18 19 20 21 22 23 24 25 26 27 28 29 30 31 32 33 34 35 36 37
000
FTUS41 KRNK 271931 AAA
TAFLWB
TAF AMD
KLWB 271931Z 2720/2818 22011KT P6SM VCSH SCT020 BKN035
     FM272300 26007KT 6SM -SHRA VCTS BKN050CB
      TEMPO 2723/2802 3SM TSRA BR OVC035CB
     FM280400 26008KT P6SM BKN050
     FM281000 27006KT P6SM SCT015 BKN035
     FM281500 28012G22KT P6SM BKN035=

USA.gov is the U.S. government's official web portal to all federal, state and local government web resources and services.